Time;durP1;ratioP1;P1;durP2;ratioP2;P2;SDS_P1;SDS_P2;PMS_P1;PMS_P2;Temp;Humidity;BMP_temperature;BMP_pressure;BME280_temperature;BME280_humidity;BME280_pressure;Samples;Min_cycle;Max_cycle;Signal;HPM_P1;HPM_P2
2022/07/07 00:00:21;;;;;;;19.92;16.67;;;16.30;99.90;;;;;;4971882;28;20046;-94
2022/07/07 00:02:48;;;;;;;21.98;17.70;;;16.30;99.90;;;;;;5009501;28;20050;-94
2022/07/07 00:05:14;;;;;;;21.30;17.25;;;16.30;99.90;;;;;;4974954;28;20046;-93
2022/07/07 00:07:41;;;;;;;22.20;18.88;;;16.30;99.90;;;;;;4986178;28;20433;-94
2022/07/07 00:10:08;;;;;;;21.98;18.25;;;16.30;99.90;;;;;;4988239;28;20065;-94
2022/07/07 00:12:35;;;;;;;24.90;18.88;;;16.30;99.90;;;;;;4987440;28;20052;-94
2022/07/07 00:15:02;;;;;;;23.88;18.90;;;16.30;99.90;;;;;;5004938;28;20054;-94
2022/07/07 00:17:28;;;;;;;23.17;18.17;;;16.30;99.90;;;;;;4970093;28;20050;-93
2022/07/07 00:19:55;;;;;;;22.75;18.05;;;16.40;99.90;;;;;;4986158;28;20049;-94
2022/07/07 00:22:22;;;;;;;19.92;17.85;;;16.30;99.90;;;;;;4994092;28;20049;-95
2022/07/07 00:24:48;;;;;;;21.70;18.52;;;16.40;99.90;;;;;;4974002;28;20046;-93
2022/07/07 00:27:15;;;;;;;22.58;18.55;;;16.40;99.90;;;;;;4993722;28;20508;-93
2022/07/07 00:29:43;;;;;;;22.90;18.60;;;16.40;99.90;;;;;;5008940;28;20550;-92
2022/07/07 00:32:13;;;;;;;23.35;17.73;;;16.40;99.90;;;;;;4991958;28;20045;-94
2022/07/07 00:34:49;;;;;;;18.02;16.13;;;16.40;99.90;;;;;;4990504;28;20041;-93
2022/07/07 00:37:15;;;;;;;18.00;14.35;;;16.40;99.90;;;;;;4996735;28;20137;-93
2022/07/07 00:39:41;;;;;;;18.40;14.98;;;16.40;99.90;;;;;;5010136;28;20060;-93
2022/07/07 00:42:14;;;;;;;17.23;14.73;;;16.40;99.90;;;;;;4982353;28;20358;-94
2022/07/07 00:44:40;;;;;;;16.88;12.35;;;16.40;99.90;;;;;;5012153;28;20054;-94
2022/07/07 00:47:07;;;;;;;15.98;13.07;;;16.40;99.90;;;;;;4994549;28;20053;-93
2022/07/07 00:49:35;;;;;;;16.00;13.40;;;16.40;99.90;;;;;;4990457;28;20268;-93
2022/07/07 00:52:01;;;;;;;16.17;11.45;;;16.40;99.90;;;;;;4993808;28;20053;-95
2022/07/07 00:54:28;;;;;;;13.48;11.88;;;16.40;99.90;;;;;;4997803;28;20049;-94
2022/07/07 00:56:54;;;;;;;14.00;11.82;;;16.40;99.90;;;;;;5027421;28;20068;-93
2022/07/07 00:59:20;;;;;;;15.05;12.45;;;16.40;99.90;;;;;;5045520;28;20034;-94
2022/07/07 01:01:47;;;;;;;14.02;12.57;;;16.40;99.90;;;;;;5054050;28;20041;-94
2022/07/07 01:04:14;;;;;;;14.23;12.25;;;16.40;99.90;;;;;;5024475;28;20030;-94
2022/07/07 01:06:41;;;;;;;15.73;12.70;;;16.30;99.90;;;;;;5013404;28;20029;-94
2022/07/07 01:09:09;;;;;;;18.40;13.35;;;16.30;99.90;;;;;;5012684;28;20057;-94
2022/07/07 01:11:54;;;;;;;16.02;12.93;;;16.30;99.90;;;;;;5018196;28;20034;-95
2022/07/07 01:14:22;;;;;;;18.35;13.23;;;16.30;99.90;;;;;;5013286;28;20040;-95
2022/07/07 01:16:49;;;;;;;17.15;13.77;;;16.30;99.90;;;;;;4964437;28;1432447;-94
2022/07/07 01:19:20;;;;;;;19.20;14.30;;;16.30;99.90;;;;;;5015468;28;20157;-93
2022/07/07 01:21:57;;;;;;;19.02;14.80;;;16.30;99.90;;;;;;4987283;28;20046;-95
2022/07/07 01:24:26;;;;;;;20.88;15.32;;;16.30;99.90;;;;;;5026637;28;20076;-94
2022/07/07 01:27:11;;;;;;;18.67;16.70;;;16.30;99.90;;;;;;4997728;28;20101;-95
2022/07/07 01:29:39;;;;;;;20.42;16.30;;;16.30;99.90;;;;;;5023490;28;20372;-94
2022/07/07 01:32:08;;;;;;;22.30;17.55;;;16.30;99.90;;;;;;4990134;28;20145;-94
2022/07/07 01:34:37;;;;;;;19.67;15.40;;;16.30;99.90;;;;;;4991713;28;20050;-94
2022/07/07 01:37:04;;;;;;;18.88;14.52;;;16.30;99.90;;;;;;5009827;28;20116;-95
2022/07/07 01:39:32;;;;;;;16.73;13.45;;;16.30;99.90;;;;;;4961390;28;20092;-95
2022/07/07 01:41:58;;;;;;;14.63;12.40;;;16.30;99.90;;;;;;4991228;28;20441;-94
2022/07/07 01:44:25;;;;;;;16.65;13.85;;;16.20;99.90;;;;;;4992407;28;20077;-96
2022/07/07 01:46:51;;;;;;;11.73;9.93;;;16.30;99.90;;;;;;4974931;28;20042;-96
2022/07/07 01:49:17;;;;;;;12.57;10.63;;;16.30;99.90;;;;;;5006671;28;20052;-96
2022/07/07 01:51:45;;;;;;;13.75;9.57;;;16.20;99.90;;;;;;4990083;28;20050;-96
2022/07/07 01:54:12;;;;;;;11.30;8.43;;;16.20;99.90;;;;;;4987428;28;20646;-96
2022/07/07 01:56:38;;;;;;;9.93;6.90;;;16.20;99.90;;;;;;4975872;28;20042;-96
2022/07/07 01:59:04;;;;;;;11.52;7.05;;;16.10;99.90;;;;;;4990116;28;20072;-96
2022/07/07 02:01:30;;;;;;;9.20;7.00;;;16.10;99.90;;;;;;4973689;28;20046;-96
2022/07/07 02:03:56;;;;;;;12.68;7.38;;;16.10;99.90;;;;;;4993543;28;20077;-95
2022/07/07 02:06:23;;;;;;;12.90;7.47;;;16.10;99.90;;;;;;4988770;28;20046;-94
2022/07/07 02:08:49;;;;;;;10.25;7.45;;;16.10;99.90;;;;;;4969481;28;20104;-95
2022/07/07 02:11:16;;;;;;;7.82;6.95;;;16.10;99.90;;;;;;4991761;28;20053;-94
2022/07/07 02:13:48;;;;;;;11.23;7.45;;;16.00;99.90;;;;;;5012063;28;20478;-95
2022/07/07 02:16:17;;;;;;;14.10;7.25;;;16.00;99.90;;;;;;5033848;28;20089;-95
2022/07/07 02:18:46;;;;;;;9.10;6.72;;;16.00;99.90;;;;;;4989493;28;20057;-96
2022/07/07 02:21:14;;;;;;;12.63;7.57;;;16.00;99.90;;;;;;4991490;28;20380;-95
2022/07/07 02:23:45;;;;;;;10.75;7.18;;;15.90;99.90;;;;;;5023074;28;20513;-95
2022/07/07 02:26:12;;;;;;;10.48;6.82;;;16.00;99.90;;;;;;4988941;28;20145;-95
2022/07/07 02:28:39;;;;;;;8.45;6.13;;;15.90;99.90;;;;;;5024769;28;20536;-95
2022/07/07 02:31:05;;;;;;;10.40;6.45;;;15.90;99.90;;;;;;5006299;28;20284;-95
2022/07/07 02:33:32;;;;;;;8.77;6.40;;;15.90;99.90;;;;;;5007822;28;20053;-96
2022/07/07 02:35:59;;;;;;;8.05;5.90;;;15.90;99.90;;;;;;5007048;28;20161;-95
2022/07/07 02:38:25;;;;;;;9.43;7.30;;;15.90;99.90;;;;;;4988405;28;20057;-95
2022/07/07 02:40:52;;;;;;;8.18;6.22;;;15.90;99.90;;;;;;5005192;28;20406;-95
2022/07/07 02:43:19;;;;;;;9.25;6.10;;;16.00;99.90;;;;;;4997637;28;20134;-95
2022/07/07 02:45:48;;;;;;;8.65;5.80;;;15.90;99.90;;;;;;5006676;28;20129;-95
2022/07/07 02:48:18;;;;;;;6.97;5.47;;;15.90;99.90;;;;;;4988302;28;20080;-95
2022/07/07 02:50:45;;;;;;;8.65;5.90;;;15.90;99.90;;;;;;4989199;28;20430;-96
2022/07/07 02:53:11;;;;;;;7.85;5.45;;;16.00;99.90;;;;;;5005157;28;20061;-95
2022/07/07 02:55:40;;;;;;;7.82;5.93;;;16.00;99.90;;;;;;4990443;28;20104;-96
2022/07/07 02:58:07;;;;;;;10.35;5.40;;;16.00;99.90;;;;;;4990712;28;20070;-96
2022/07/07 03:00:35;;;;;;;7.53;5.32;;;16.00;99.90;;;;;;4990911;28;20050;-95
2022/07/07 03:03:02;;;;;;;8.45;4.75;;;16.00;99.90;;;;;;5017261;28;20130;-95
2022/07/07 03:05:29;;;;;;;10.65;5.47;;;16.00;99.90;;;;;;4989771;28;20065;-95
2022/07/07 03:07:56;;;;;;;8.13;5.47;;;16.00;99.90;;;;;;5004489;28;20435;-96
2022/07/07 03:10:22;;;;;;;9.23;6.00;;;16.00;99.90;;;;;;4994777;28;20505;-96
2022/07/07 03:12:49;;;;;;;10.07;6.18;;;16.00;99.90;;;;;;5000605;28;20704;-96
2022/07/07 03:15:15;;;;;;;11.18;6.32;;;16.00;99.90;;;;;;4957995;28;20046;-95
2022/07/07 03:17:44;;;;;;;12.35;5.63;;;16.00;99.90;;;;;;4989046;28;20505;-95
2022/07/07 03:20:11;;;;;;;8.90;5.40;;;16.00;99.90;;;;;;4985693;28;20053;-95
2022/07/07 03:22:38;;;;;;;8.68;5.30;;;16.10;99.90;;;;;;5000331;28;20050;-95
2022/07/07 03:25:05;;;;;;;7.07;4.13;;;16.00;99.90;;;;;;5005688;28;20302;-96
2022/07/07 03:27:33;;;;;;;11.10;4.75;;;16.00;99.90;;;;;;4990576;28;20053;-96
2022/07/07 03:29:59;;;;;;;9.38;4.28;;;16.00;99.90;;;;;;4989338;28;20057;-96
2022/07/07 03:32:26;;;;;;;12.48;4.90;;;16.00;99.90;;;;;;4977046;28;20379;-96
2022/07/07 03:34:53;;;;;;;8.10;4.28;;;16.00;99.90;;;;;;4972164;28;20038;-96
2022/07/07 03:37:19;;;;;;;9.65;3.80;;;15.90;99.90;;;;;;4961005;28;20055;-95
2022/07/07 03:39:45;;;;;;;11.05;4.25;;;16.00;99.90;;;;;;4982203;28;20046;-96
2022/07/07 03:42:12;;;;;;;7.57;3.53;;;15.90;99.90;;;;;;4990479;28;20045;-94
2022/07/07 03:44:39;;;;;;;11.13;3.70;;;15.90;99.90;;;;;;4993943;28;20046;-96
2022/07/07 03:47:05;;;;;;;10.23;3.70;;;15.90;99.90;;;;;;5004379;28;20046;-96
2022/07/07 03:49:32;;;;;;;12.10;3.65;;;15.90;99.90;;;;;;4986822;28;20045;-95
2022/07/07 03:51:58;;;;;;;12.95;4.55;;;15.90;99.90;;;;;;5026292;28;20049;-94
2022/07/07 03:54:24;;;;;;;10.20;4.25;;;15.90;99.90;;;;;;5008877;28;20046;-96
2022/07/07 03:56:52;;;;;;;11.00;4.70;;;15.90;99.90;;;;;;5008457;28;20038;-96
2022/07/07 03:59:18;;;;;;;10.98;4.00;;;15.90;99.90;;;;;;5002454;28;20138;-95
2022/07/07 04:01:45;;;;;;;12.15;4.03;;;15.90;99.90;;;;;;5011121;28;20048;-96
2022/07/07 04:04:12;;;;;;;10.23;3.95;;;15.90;99.90;;;;;;5007794;28;20190;-96
2022/07/07 04:06:39;;;;;;;8.40;3.90;;;15.90;99.90;;;;;;4991042;28;20064;-95
2022/07/07 04:09:05;;;;;;;12.85;3.42;;;15.90;99.90;;;;;;4991419;28;20048;-95
2022/07/07 04:11:31;;;;;;;12.02;3.83;;;15.90;99.90;;;;;;4991520;28;20386;-96
2022/07/07 04:13:58;;;;;;;11.07;3.55;;;15.90;99.90;;;;;;5007188;28;20045;-96
2022/07/07 04:16:24;;;;;;;9.20;3.33;;;15.90;99.90;;;;;;4990215;28;20464;-95
2022/07/07 04:18:50;;;;;;;8.30;3.10;;;15.80;99.90;;;;;;5005110;28;20042;-96
2022/07/07 04:21:19;;;;;;;7.82;2.42;;;15.90;99.90;;;;;;4990560;28;20088;-96
2022/07/07 04:23:46;;;;;;;9.98;2.95;;;15.90;99.90;;;;;;4975188;28;20147;-96
2022/07/07 04:26:16;;;;;;;9.43;3.22;;;15.80;99.90;;;;;;4992350;28;20049;-96
2022/07/07 04:28:43;;;;;;;9.88;2.55;;;15.80;99.90;;;;;;5014247;28;20527;-96
2022/07/07 04:31:10;;;;;;;4.05;1.30;;;15.80;99.90;;;;;;4961038;28;20066;-95
2022/07/07 04:33:36;;;;;;;6.45;1.70;;;15.60;99.90;;;;;;4972204;28;20474;-96
2022/07/07 04:36:02;;;;;;;10.07;1.65;;;15.50;99.90;;;;;;5004883;28;20505;-96
2022/07/07 04:38:33;;;;;;;7.70;1.67;;;15.30;99.90;;;;;;4977642;28;20525;-96
2022/07/07 04:41:00;;;;;;;6.17;1.40;;;15.30;99.90;;;;;;5006897;28;20050;-95
2022/07/07 04:43:26;;;;;;;6.40;1.45;;;15.20;99.90;;;;;;5004629;28;20316;-95
2022/07/07 04:45:52;;;;;;;7.57;1.98;;;15.20;99.90;;;;;;5014233;28;20509;-95
2022/07/07 04:48:18;;;;;;;7.72;1.60;;;15.20;99.90;;;;;;4989484;28;20454;-96
2022/07/07 04:50:45;;;;;;;7.50;2.28;;;15.30;99.90;;;;;;4991404;28;20520;-96
2022/07/07 04:53:11;;;;;;;6.82;1.80;;;15.30;99.90;;;;;;5005741;28;20797;-96
2022/07/07 04:55:37;;;;;;;11.68;2.30;;;15.30;99.90;;;;;;4989388;28;20608;-96
2022/07/07 04:58:05;;;;;;;7.22;2.13;;;15.30;99.90;;;;;;4986305;28;20081;-96
2022/07/07 05:00:31;;;;;;;6.28;1.60;;;15.40;99.90;;;;;;4971232;28;20565;-95
2022/07/07 05:02:58;;;;;;;10.43;2.00;;;15.40;99.90;;;;;;4991082;28;20064;-96
2022/07/07 05:05:24;;;;;;;9.20;1.60;;;15.50;99.90;;;;;;5014055;28;20050;-96
2022/07/07 05:07:50;;;;;;;9.15;1.80;;;15.50;99.90;;;;;;5009894;28;20041;-96
2022/07/07 05:10:17;;;;;;;4.97;1.60;;;15.40;99.90;;;;;;4988344;28;20348;-95
2022/07/07 05:12:43;;;;;;;12.40;2.63;;;15.50;99.90;;;;;;5024006;28;20046;-95
2022/07/07 05:15:10;;;;;;;9.73;1.67;;;15.50;99.90;;;;;;4996785;28;20050;-95
2022/07/07 05:17:36;;;;;;;10.52;2.22;;;15.50;99.90;;;;;;4980302;28;20077;-95
2022/07/07 05:20:03;;;;;;;7.72;1.92;;;15.50;99.90;;;;;;5047892;28;20045;-95
2022/07/07 05:22:30;;;;;;;9.40;1.80;;;15.60;99.90;;;;;;5011867;28;20045;-96
2022/07/07 05:24:56;;;;;;;7.07;1.48;;;15.70;99.90;;;;;;5014974;28;20046;-96
2022/07/07 05:27:24;;;;;;;10.00;1.50;;;15.80;99.90;;;;;;5016334;28;20045;-96
2022/07/07 05:29:50;;;;;;;7.70;1.50;;;15.80;99.90;;;;;;4996999;28;20038;-96
2022/07/07 05:32:16;;;;;;;6.82;1.85;;;16.10;99.90;;;;;;5002390;28;20222;-96
2022/07/07 05:34:43;;;;;;;6.22;1.35;;;16.50;99.90;;;;;;5028006;28;20045;-96
2022/07/07 05:37:10;;;;;;;3.42;1.30;;;16.50;99.90;;;;;;5013160;28;20071;-95
2022/07/07 05:39:37;;;;;;;5.53;1.48;;;16.60;99.90;;;;;;5018862;28;20053;-95
2022/07/07 05:42:04;;;;;;;6.30;2.08;;;16.80;99.90;;;;;;4988879;28;20037;-95
2022/07/07 05:44:31;;;;;;;6.78;1.30;;;16.90;99.90;;;;;;4995402;28;20754;-96
2022/07/07 05:46:57;;;;;;;6.13;1.50;;;17.00;99.90;;;;;;5006890;28;20042;-96
2022/07/07 05:49:24;;;;;;;8.02;1.35;;;17.30;99.90;;;;;;4987719;28;20110;-85
2022/07/07 05:51:50;;;;;;;8.50;1.70;;;17.40;99.90;;;;;;4966627;28;20048;-84
2022/07/07 05:54:16;;;;;;;8.85;2.15;;;17.60;99.90;;;;;;5016789;28;20046;-84
2022/07/07 05:56:42;;;;;;;10.52;1.88;;;17.70;99.90;;;;;;4986684;28;20147;-84
2022/07/07 05:59:10;;;;;;;8.07;2.15;;;17.90;99.90;;;;;;4968860;28;20929;-85
2022/07/07 06:01:36;;;;;;;11.48;2.65;;;18.10;99.90;;;;;;5002193;28;20045;-84
2022/07/07 06:04:02;;;;;;;10.93;1.75;;;18.30;99.90;;;;;;4984665;28;20084;-91
2022/07/07 06:06:28;;;;;;;8.43;1.95;;;18.50;99.90;;;;;;4999378;28;20563;-84
2022/07/07 06:08:55;;;;;;;5.85;1.38;;;18.70;99.90;;;;;;4986081;28;20041;-83
2022/07/07 06:11:21;;;;;;;5.50;1.30;;;18.50;99.90;;;;;;5016849;28;20076;-83
2022/07/07 06:13:47;;;;;;;8.05;1.73;;;18.20;99.90;;;;;;4968581;28;20041;-85
2022/07/07 06:16:14;;;;;;;8.18;2.05;;;18.00;99.90;;;;;;4968035;28;20054;-83
2022/07/07 06:18:40;;;;;;;9.63;1.63;;;17.70;99.90;;;;;;4985032;28;20050;-83
2022/07/07 06:21:06;;;;;;;7.85;1.88;;;17.50;99.90;;;;;;4983404;28;20213;-82
2022/07/07 06:23:33;;;;;;;7.32;1.55;;;17.40;99.90;;;;;;4998916;28;20081;-82
2022/07/07 06:26:02;;;;;;;9.02;2.00;;;17.10;99.90;;;;;;5000391;28;20065;-83
2022/07/07 06:28:29;;;;;;;7.57;2.25;;;17.30;99.90;;;;;;4999852;28;20155;-84
2022/07/07 06:30:55;;;;;;;9.23;2.28;;;17.50;99.90;;;;;;4981857;28;20422;-84
2022/07/07 06:33:22;;;;;;;10.05;1.92;;;17.70;99.90;;;;;;5018638;28;20048;-83
2022/07/07 06:35:48;;;;;;;11.18;2.92;;;18.00;99.90;;;;;;4967074;28;20535;-81
2022/07/07 06:38:15;;;;;;;10.50;2.60;;;18.20;99.90;;;;;;4952271;28;20053;-83
2022/07/07 06:40:41;;;;;;;7.47;2.22;;;18.50;99.90;;;;;;4987970;28;20049;-83
2022/07/07 06:43:07;;;;;;;6.35;2.10;;;18.40;99.90;;;;;;4966893;28;20065;-84
2022/07/07 06:45:34;;;;;;;5.63;1.60;;;18.60;99.90;;;;;;4983886;28;20112;-83
2022/07/07 06:48:00;;;;;;;8.23;2.03;;;19.00;99.90;;;;;;4983747;28;20662;-83
2022/07/07 06:50:26;;;;;;;13.20;3.83;;;19.10;99.90;;;;;;4991737;28;20046;-84
2022/07/07 06:52:52;;;;;;;8.48;1.55;;;19.10;99.90;;;;;;4985277;28;20128;-83
2022/07/07 06:55:18;;;;;;;8.25;2.20;;;18.70;99.90;;;;;;4982759;28;20535;-83
2022/07/07 06:57:45;;;;;;;6.28;2.17;;;18.70;99.90;;;;;;4996922;28;20082;-83
2022/07/07 07:00:12;;;;;;;7.10;2.47;;;18.40;99.90;;;;;;4998639;28;20045;-83
2022/07/07 07:02:48;;;;;;;11.15;2.70;;;18.20;99.90;;;;;;5016417;28;20048;-83
2022/07/07 07:05:15;;;;;;;9.30;2.63;;;18.10;99.90;;;;;;4998305;28;20045;-83
2022/07/07 07:07:41;;;;;;;6.15;1.25;;;17.90;99.90;;;;;;5014341;28;20050;-83
2022/07/07 07:10:08;;;;;;;5.57;1.42;;;17.30;99.90;;;;;;4981603;28;20045;-82
2022/07/07 07:12:34;;;;;;;3.80;1.20;;;17.20;99.90;;;;;;4984464;28;20057;-82
2022/07/07 07:15:01;;;;;;;3.10;0.80;;;17.20;99.90;;;;;;4990887;28;20050;-83
2022/07/07 07:17:27;;;;;;;5.82;1.25;;;17.30;99.90;;;;;;4966007;28;20508;-83
2022/07/07 07:19:53;;;;;;;5.38;1.08;;;17.50;99.90;;;;;;4934710;28;20046;-83
2022/07/07 07:22:19;;;;;;;5.18;1.73;;;17.60;99.90;;;;;;4999916;28;20124;-83
2022/07/07 07:24:46;;;;;;;4.40;1.30;;;17.70;99.90;;;;;;5000360;28;20079;-83
2022/07/07 07:27:12;;;;;;;2.88;0.73;;;17.60;99.90;;;;;;4999277;28;20505;-83
2022/07/07 07:29:38;;;;;;;4.03;0.98;;;17.50;99.90;;;;;;4967927;28;20037;-83
2022/07/07 07:32:05;;;;;;;5.97;1.13;;;17.70;99.90;;;;;;5015150;28;20046;-83
2022/07/07 07:34:31;;;;;;;6.60;1.10;;;18.00;99.90;;;;;;4980409;28;20049;-81
2022/07/07 07:36:58;;;;;;;3.47;1.30;;;18.50;99.90;;;;;;4998584;28;20048;-84
2022/07/07 07:39:24;;;;;;;3.67;0.82;;;18.70;99.90;;;;;;4998922;28;20374;-83
2022/07/07 07:41:51;;;;;;;3.78;0.95;;;18.80;99.90;;;;;;5015939;28;20504;-83
2022/07/07 07:45:09;;;;;;;3.85;0.70;;;18.60;99.90;;;;;;5015415;28;20132;-83
2022/07/07 07:47:04;;;;;;;5.22;2.10;;;18.80;99.90;;;;;;4968320;28;20053;-83
2022/07/07 07:49:30;;;;;;;5.88;2.05;;;19.50;99.90;;;;;;4997431;28;20401;-82
2022/07/07 07:51:57;;;;;;;3.85;0.95;;;19.70;99.90;;;;;;4968673;28;20386;-83
2022/07/07 07:54:26;;;;;;;4.57;1.45;;;19.70;99.90;;;;;;4982592;28;20072;-81
2022/07/07 07:56:52;;;;;;;5.90;1.27;;;20.10;99.90;;;;;;5002933;28;20087;-82
2022/07/07 07:59:18;;;;;;;4.85;0.95;;;20.40;99.90;;;;;;4999082;28;20049;-82
2022/07/07 08:01:44;;;;;;;5.85;1.40;;;20.20;99.90;;;;;;4967732;28;20129;-84
2022/07/07 08:04:11;;;;;;;5.03;0.80;;;20.40;99.90;;;;;;4997760;28;20085;-82
2022/07/07 08:06:37;;;;;;;3.65;0.73;;;20.30;99.90;;;;;;4998986;28;20552;-82
2022/07/07 08:09:03;;;;;;;3.30;0.93;;;19.70;99.90;;;;;;5014905;28;20053;-82
2022/07/07 08:11:29;;;;;;;4.70;0.90;;;19.40;99.90;;;;;;4984009;28;20337;-82
2022/07/07 08:13:55;;;;;;;3.47;0.50;;;18.80;99.90;;;;;;4981145;28;20117;-82
2022/07/07 08:16:22;;;;;;;3.70;1.10;;;18.40;99.90;;;;;;4979889;28;20060;-82
2022/07/07 08:18:48;;;;;;;2.38;0.60;;;18.20;99.90;;;;;;4996437;28;20115;-82
2022/07/07 08:21:14;;;;;;;1.77;0.63;;;18.30;99.90;;;;;;4982505;28;20046;-83
2022/07/07 08:23:40;;;;;;;3.80;1.92;;;18.60;99.90;;;;;;4967076;28;20524;-83
2022/07/07 08:26:06;;;;;;;2.88;0.50;;;19.40;99.90;;;;;;4981904;28;20042;-83
2022/07/07 08:28:32;;;;;;;5.32;1.30;;;19.70;99.90;;;;;;4980796;28;20124;-82
2022/07/07 08:30:59;;;;;;;8.80;4.07;;;19.90;99.90;;;;;;4980852;28;20097;-83
2022/07/07 08:33:25;;;;;;;3.45;0.90;;;20.00;99.90;;;;;;4998838;28;20103;-83
2022/07/07 08:35:51;;;;;;;7.07;2.08;;;19.90;99.90;;;;;;4994622;28;20052;-81
2022/07/07 08:38:17;;;;;;;4.20;0.90;;;20.00;99.90;;;;;;4962204;28;20049;-81
2022/07/07 08:40:47;;;;;;;4.28;1.55;;;19.80;99.90;;;;;;4982034;28;20052;-82
2022/07/07 08:43:15;;;;;;;1.95;0.63;;;19.60;99.90;;;;;;4965027;28;20049;-82
2022/07/07 08:45:41;;;;;;;3.13;0.85;;;19.70;99.90;;;;;;5001894;28;20050;-82
2022/07/07 08:48:07;;;;;;;4.15;1.05;;;19.60;99.90;;;;;;4984150;28;20084;-82
2022/07/07 08:50:37;;;;;;;2.92;0.73;;;19.60;99.90;;;;;;4987299;28;20120;-82
2022/07/07 08:53:04;;;;;;;2.35;0.70;;;19.50;99.90;;;;;;5001217;28;20479;-82
2022/07/07 08:55:32;;;;;;;10.13;7.13;;;19.80;99.90;;;;;;5002064;28;20586;-83
2022/07/07 08:57:59;;;;;;;5.95;3.45;;;20.50;99.90;;;;;;4976402;28;20589;-83
2022/07/07 09:00:26;;;;;;;4.93;0.95;;;21.00;99.90;;;;;;4997968;28;20401;-82
2022/07/07 09:02:56;;;;;;;5.45;1.60;;;20.80;99.90;;;;;;4982581;28;20480;-82
2022/07/07 09:05:24;;;;;;;2.70;0.70;;;21.10;99.90;;;;;;5012952;28;20076;-83
2022/07/07 09:07:52;;;;;;;7.05;2.00;;;21.10;99.90;;;;;;4985314;28;20393;-82
2022/07/07 09:10:33;;;;;;;6.82;1.20;;;20.90;99.90;;;;;;4999902;28;20045;-83
2022/07/07 09:13:00;;;;;;;5.95;0.98;;;20.60;99.90;;;;;;5018951;28;20323;-83
2022/07/07 09:15:27;;;;;;;3.50;1.08;;;20.40;99.90;;;;;;4983763;28;20065;-83
2022/07/07 09:17:54;;;;;;;5.43;1.08;;;20.30;99.90;;;;;;5034793;28;20198;-84
2022/07/07 09:20:21;;;;;;;8.65;1.55;;;20.10;99.90;;;;;;5003143;28;20505;-83
2022/07/07 09:22:54;;;;;;;7.68;2.35;;;19.60;99.90;;;;;;4988293;28;20246;-83
2022/07/07 09:25:27;;;;;;;7.20;1.55;;;19.10;99.90;;;;;;4972044;28;20552;-83
2022/07/07 09:27:59;;;;;;;4.80;1.35;;;18.80;99.90;;;;;;4968523;28;20087;-84
2022/07/07 09:30:27;;;;;;;6.82;1.92;;;18.50;99.90;;;;;;5003027;28;20093;-82
2022/07/07 09:32:53;;;;;;;7.22;1.35;;;18.30;99.90;;;;;;4993347;28;20502;-83
2022/07/07 09:38:13;;;;;;;7.20;3.10;;;18.40;99.90;;;;;;4985058;28;20050;-82
2022/07/07 09:38:14;;;;;;;5.75;2.72;;;18.70;99.90;;;;;;4998782;28;20050;-82
2022/07/07 09:40:58;;;;;;;6.43;1.38;;;19.30;99.90;;;;;;4988551;28;20057;-82
2022/07/07 09:43:24;;;;;;;9.30;5.18;;;19.60;99.90;;;;;;5002470;28;20037;-83
2022/07/07 09:46:05;;;;;;;5.70;1.80;;;19.60;99.90;;;;;;4986671;28;20181;-83
2022/07/07 09:48:33;;;;;;;5.53;2.70;;;19.20;99.90;;;;;;5006576;28;20412;-82
2022/07/07 09:51:22;;;;;;;9.02;4.40;;;18.90;99.90;;;;;;4996786;28;20029;-82
2022/07/07 09:54:10;;;;;;;14.80;5.88;;;18.90;99.90;;;;;;5001914;28;20050;-83
2022/07/07 09:56:38;;;;;;;4.57;1.40;;;18.70;99.90;;;;;;5021008;28;20046;-83
2022/07/07 09:59:11;;;;;;;4.50;1.98;;;18.70;99.90;;;;;;4986659;28;20080;-83
2022/07/07 10:01:42;;;;;;;3.67;1.23;;;18.70;99.90;;;;;;5017861;28;20041;-83
2022/07/07 10:04:12;;;;;;;9.80;2.55;;;19.40;99.90;;;;;;4984762;28;20046;-83
2022/07/07 10:06:40;;;;;;;4.70;1.10;;;19.90;99.90;;;;;;4997833;28;20809;-82
2022/07/07 10:09:09;;;;;;;5.22;1.80;;;20.40;99.90;;;;;;5015249;28;20053;-83
2022/07/07 10:11:41;;;;;;;4.85;1.60;;;20.90;99.90;;;;;;4982553;28;20111;-83
2022/07/07 10:14:12;;;;;;;5.22;2.50;;;21.30;99.90;;;;;;5033207;28;20100;-84
2022/07/07 10:16:39;;;;;;;4.50;1.48;;;20.70;99.90;;;;;;4983175;28;20092;-83
2022/07/07 10:19:07;;;;;;;6.70;1.50;;;20.60;99.90;;;;;;5000767;28;20580;-84
2022/07/07 10:21:33;;;;;;;7.72;1.58;;;20.70;99.90;;;;;;4987421;28;20050;-83
2022/07/07 10:24:00;;;;;;;5.63;3.17;;;20.90;99.90;;;;;;5000389;28;20049;-83
2022/07/07 10:26:50;;;;;;;7.40;4.65;;;20.90;99.90;;;;;;4981509;28;20136;-83
2022/07/07 10:29:17;;;;;;;11.90;8.23;;;20.40;99.90;;;;;;5032648;28;20077;-83
2022/07/07 10:31:51;;;;;;;15.25;11.05;;;20.30;99.90;;;;;;4988329;28;20045;-82
2022/07/07 10:34:17;;;;;;;4.07;1.10;;;20.30;99.90;;;;;;4988004;28;20067;-82
2022/07/07 10:36:50;;;;;;;7.47;1.30;;;20.30;99.90;;;;;;4987357;28;20046;-82
2022/07/07 10:39:20;;;;;;;5.65;1.50;;;21.10;99.90;;;;;;5001227;28;20090;-82
2022/07/07 10:42:07;;;;;;;6.83;1.60;;;20.80;99.90;;;;;;5019860;28;20050;-82
2022/07/07 10:44:35;;;;;;;6.93;3.10;;;20.30;99.90;;;;;;5017835;28;20382;-81
2022/07/07 10:47:05;;;;;;;6.53;2.78;;;19.90;99.90;;;;;;4994920;28;20050;-81
2022/07/07 10:49:45;;;;;;;6.00;1.40;;;19.50;99.90;;;;;;5039636;28;20073;-80
2022/07/07 10:52:14;;;;;;;7.55;1.48;;;19.00;99.90;;;;;;5035098;28;20045;-81
2022/07/07 10:54:45;;;;;;;4.45;1.38;;;18.70;99.90;;;;;;5011557;28;20041;-81
2022/07/07 10:57:14;;;;;;;5.77;1.30;;;18.60;99.90;;;;;;5025881;28;20049;-81
2022/07/07 11:00:03;;;;;;;5.25;1.25;;;18.60;99.90;;;;;;5022416;28;20304;-81
2022/07/07 11:02:47;;;;;;;7.93;2.50;;;18.40;99.90;;;;;;4968497;28;20145;-81
2022/07/07 11:05:13;;;;;;;7.13;1.63;;;18.60;99.90;;;;;;4974741;28;20476;-81
2022/07/07 11:08:07;;;;;;;7.25;2.95;;;18.70;99.90;;;;;;5016775;28;20042;-83
2022/07/07 11:10:36;;;;;;;5.82;1.65;;;18.80;99.90;;;;;;5015159;28;20074;-82
2022/07/07 11:13:16;;;;;;;6.75;1.73;;;18.50;99.90;;;;;;4970006;28;20065;-82
2022/07/07 11:15:46;;;;;;;7.90;1.67;;;18.30;99.90;;;;;;5017683;28;20180;-82
2022/07/07 11:18:15;;;;;;;11.60;2.03;;;18.30;99.90;;;;;;4982787;28;20544;-81
2022/07/07 11:20:56;;;;;;;7.15;1.80;;;18.30;99.90;;;;;;4984699;28;20042;-82
2022/07/07 11:23:24;;;;;;;8.02;2.20;;;18.60;99.90;;;;;;4984291;28;20426;-81
2022/07/07 11:25:55;;;;;;;11.48;1.92;;;18.80;99.90;;;;;;4988953;28;20046;-81
2022/07/07 11:28:24;;;;;;;8.83;2.17;;;19.00;99.90;;;;;;5003602;28;20050;-82
2022/07/07 11:31:01;;;;;;;12.60;1.58;;;19.30;99.90;;;;;;5003511;28;20049;-81
2022/07/07 11:33:27;;;;;;;11.77;2.92;;;19.70;99.90;;;;;;5005535;28;20045;-81
2022/07/07 11:35:53;;;;;;;11.90;2.25;;;20.00;99.90;;;;;;5020343;28;20042;-82
2022/07/07 11:38:26;;;;;;;8.95;2.25;;;20.00;99.90;;;;;;4970239;28;20578;-81
2022/07/07 11:40:53;;;;;;;7.65;1.83;;;19.80;99.90;;;;;;5016932;28;20046;-81
2022/07/07 11:43:23;;;;;;;8.70;2.47;;;19.90;99.90;;;;;;4969559;28;20054;-83
2022/07/07 11:45:50;;;;;;;12.52;3.28;;;19.30;99.90;;;;;;5015241;28;20410;-83
2022/07/07 11:48:16;;;;;;;11.63;2.10;;;18.90;99.90;;;;;;4996041;28;20100;-83
2022/07/07 11:50:42;;;;;;;10.02;3.20;;;18.70;99.90;;;;;;4981301;28;20410;-82
2022/07/07 11:53:10;;;;;;;12.32;2.95;;;18.70;99.90;;;;;;5015533;28;20079;-83
2022/07/07 11:55:37;;;;;;;15.18;3.10;;;18.80;99.90;;;;;;4988070;28;20141;-82
2022/07/07 11:58:05;;;;;;;11.32;2.65;;;19.20;99.90;;;;;;4979412;28;20130;-82
2022/07/07 12:00:37;;;;;;;13.65;3.13;;;19.40;99.90;;;;;;5006918;28;20050;-82
2022/07/07 12:03:08;;;;;;;14.88;3.80;;;19.20;99.90;;;;;;4984919;28;20053;-82
2022/07/07 12:05:43;;;;;;;11.80;2.95;;;18.90;99.90;;;;;;4985507;28;20050;-82
2022/07/07 12:08:12;;;;;;;14.57;4.13;;;18.90;99.90;;;;;;4969314;28;20588;-81
2022/07/07 12:10:48;;;;;;;12.20;3.28;;;19.00;99.90;;;;;;4962874;28;20049;-82
2022/07/07 12:13:15;;;;;;;11.48;2.92;;;19.00;99.90;;;;;;4999392;28;20042;-82
2022/07/07 12:15:50;;;;;;;18.08;3.85;;;19.40;99.90;;;;;;4973426;28;20556;-83
2022/07/07 12:18:35;;;;;;;14.25;3.70;;;19.60;99.90;;;;;;5033742;28;20041;-81
2022/07/07 12:21:05;;;;;;;14.02;4.47;;;19.90;99.90;;;;;;5021941;28;20541;-82
2022/07/07 12:23:53;;;;;;;11.32;2.50;;;20.10;99.90;;;;;;4986301;28;20053;-83
2022/07/07 12:26:26;;;;;;;13.43;5.03;;;20.30;99.90;;;;;;4998523;28;20050;-83
2022/07/07 12:28:58;;;;;;;12.52;4.75;;;20.60;99.90;;;;;;4987726;28;20343;-83
2022/07/07 12:31:25;;;;;;;12.40;3.65;;;20.70;99.90;;;;;;4978216;28;20060;-83
2022/07/07 12:33:51;;;;;;;11.18;2.47;;;20.60;99.90;;;;;;4974188;28;20037;-83
2022/07/07 12:36:23;;;;;;;7.82;1.77;;;20.20;99.90;;;;;;5004505;28;20084;-83
2022/07/07 12:38:54;;;;;;;11.00;2.58;;;19.90;99.90;;;;;;4983655;28;20072;-83
2022/07/07 12:41:29;;;;;;;15.23;3.42;;;20.10;99.90;;;;;;4985867;28;20041;-83
2022/07/07 12:44:10;;;;;;;11.73;3.55;;;19.80;99.90;;;;;;4989031;28;20049;-83
2022/07/07 12:46:37;;;;;;;12.05;3.33;;;19.70;99.90;;;;;;5000413;28;21104;-82